sensor_id;sensor_type;location;lat;lon;timestamp;temperature;humidity
39493;DHT22;25176;51.060;3.720;2022-11-20T00:00:53;6.40;99.90
39493;DHT22;25176;51.060;3.720;2022-11-20T00:03:18;6.50;99.90
39493;DHT22;25176;51.060;3.720;2022-11-20T00:05:43;6.50;99.90
39493;DHT22;25176;51.060;3.720;2022-11-20T00:08:09;6.60;99.90
39493;DHT22;25176;51.060;3.720;2022-11-20T00:10:38;6.30;99.90
39493;DHT22;25176;51.060;3.720;2022-11-20T00:13:03;6.30;99.90
39493;DHT22;25176;51.060;3.720;2022-11-20T00:15:29;6.40;99.90
39493;DHT22;25176;51.060;3.720;2022-11-20T00:17:54;6.60;99.90
39493;DHT22;25176;51.060;3.720;2022-11-20T00:20:20;6.50;99.90
39493;DHT22;25176;51.060;3.720;2022-11-20T00:22:45;6.40;99.90
39493;DHT22;25176;51.060;3.720;2022-11-20T00:25:11;6.30;99.90
39493;DHT22;25176;51.060;3.720;2022-11-20T00:27:36;6.30;99.90
39493;DHT22;25176;51.060;3.720;2022-11-20T00:30:02;6.20;99.90
39493;DHT22;25176;51.060;3.720;2022-11-20T00:32:27;6.00;99.90
39493;DHT22;25176;51.060;3.720;2022-11-20T00:34:53;6.10;99.90
39493;DHT22;25176;51.060;3.720;2022-11-20T00:37:18;6.40;99.90
39493;DHT22;25176;51.060;3.720;2022-11-20T00:39:44;6.60;99.90
39493;DHT22;25176;51.060;3.720;2022-11-20T00:42:09;6.90;99.90
39493;DHT22;25176;51.060;3.720;2022-11-20T00:44:35;6.80;99.90
39493;DHT22;25176;51.060;3.720;2022-11-20T00:47:00;6.70;99.90
39493;DHT22;25176;51.060;3.720;2022-11-20T00:49:26;6.70;99.90
39493;DHT22;25176;51.060;3.720;2022-11-20T00:51:51;6.70;99.90
39493;DHT22;25176;51.060;3.720;2022-11-20T00:54:16;6.70;99.90
39493;DHT22;25176;51.060;3.720;2022-11-20T00:56:42;6.80;99.90
39493;DHT22;25176;51.060;3.720;2022-11-20T00:59:08;6.60;99.90
39493;DHT22;25176;51.060;3.720;2022-11-20T01:01:34;6.60;99.90
39493;DHT22;25176;51.060;3.720;2022-11-20T01:04:01;6.70;99.90
39493;DHT22;25176;51.060;3.720;2022-11-20T01:06:28;6.70;99.90
39493;DHT22;25176;51.060;3.720;2022-11-20T01:08:55;6.60;99.90
39493;DHT22;25176;51.060;3.720;2022-11-20T01:11:22;6.70;99.90
39493;DHT22;25176;51.060;3.720;2022-11-20T01:13:48;6.80;99.90
39493;DHT22;25176;51.060;3.720;2022-11-20T01:16:15;7.00;99.90
39493;DHT22;25176;51.060;3.720;2022-11-20T01:18:42;7.10;99.90
39493;DHT22;25176;51.060;3.720;2022-11-20T01:21:09;7.00;99.90
39493;DHT22;25176;51.060;3.720;2022-11-20T01:23:36;7.10;99.90
39493;DHT22;25176;51.060;3.720;2022-11-20T01:26:24;7.10;99.90
39493;DHT22;25176;51.060;3.720;2022-11-20T01:28:48;7.00;99.90
39493;DHT22;25176;51.060;3.720;2022-11-20T01:33:45;6.80;99.90
39493;DHT22;25176;51.060;3.720;2022-11-20T01:36:12;6.90;99.90
39493;DHT22;25176;51.060;3.720;2022-11-20T01:38:37;7.10;99.90
39493;DHT22;25176;51.060;3.720;2022-11-20T01:41:03;7.40;99.90
39493;DHT22;25176;51.060;3.720;2022-11-20T01:43:29;7.40;99.90
39493;DHT22;25176;51.060;3.720;2022-11-20T01:54:07;7.20;99.90
39493;DHT22;25176;51.060;3.720;2022-11-20T01:56:35;7.20;99.90
39493;DHT22;25176;51.060;3.720;2022-11-20T01:59:01;7.30;99.90
39493;DHT22;25176;51.060;3.720;2022-11-20T02:01:29;7.30;99.90
39493;DHT22;25176;51.060;3.720;2022-11-20T02:03:54;7.10;99.90
39493;DHT22;25176;51.060;3.720;2022-11-20T02:06:24;7.10;99.90
39493;DHT22;25176;51.060;3.720;2022-11-20T02:08:50;7.10;99.90
39493;DHT22;25176;51.060;3.720;2022-11-20T02:11:16;7.00;99.90
39493;DHT22;25176;51.060;3.720;2022-11-20T02:13:41;7.00;99.90
39493;DHT22;25176;51.060;3.720;2022-11-20T02:18:44;6.20;99.90
39493;DHT22;25176;51.060;3.720;2022-11-20T02:21:16;6.30;99.90
39493;DHT22;25176;51.060;3.720;2022-11-20T02:24:03;6.40;99.90
39493;DHT22;25176;51.060;3.720;2022-11-20T02:26:30;6.40;99.90
39493;DHT22;25176;51.060;3.720;2022-11-20T02:28:56;6.60;99.90
39493;DHT22;25176;51.060;3.720;2022-11-20T02:31:23;6.60;99.90
39493;DHT22;25176;51.060;3.720;2022-11-20T02:33:53;6.70;99.90
39493;DHT22;25176;51.060;3.720;2022-11-20T02:36:19;6.80;99.90
39493;DHT22;25176;51.060;3.720;2022-11-20T02:38:44;6.80;99.90
39493;DHT22;25176;51.060;3.720;2022-11-20T02:41:10;6.70;99.90
39493;DHT22;25176;51.060;3.720;2022-11-20T02:43:35;6.80;99.90
39493;DHT22;25176;51.060;3.720;2022-11-20T02:46:01;6.70;99.90
39493;DHT22;25176;51.060;3.720;2022-11-20T02:48:26;6.90;99.90
39493;DHT22;25176;51.060;3.720;2022-11-20T02:50:52;7.00;99.90
39493;DHT22;25176;51.060;3.720;2022-11-20T02:53:17;7.20;99.90
39493;DHT22;25176;51.060;3.720;2022-11-20T02:55:42;7.20;99.90
39493;DHT22;25176;51.060;3.720;2022-11-20T02:58:08;7.20;99.90
39493;DHT22;25176;51.060;3.720;2022-11-20T03:00:33;7.30;99.90
39493;DHT22;25176;51.060;3.720;2022-11-20T03:03:00;7.40;99.90
39493;DHT22;25176;51.060;3.720;2022-11-20T03:05:26;7.50;99.90
39493;DHT22;25176;51.060;3.720;2022-11-20T03:07:51;7.50;99.90
39493;DHT22;25176;51.060;3.720;2022-11-20T03:10:17;7.60;99.90
39493;DHT22;25176;51.060;3.720;2022-11-20T03:12:42;7.60;99.90
39493;DHT22;25176;51.060;3.720;2022-11-20T03:15:08;7.70;99.90
39493;DHT22;25176;51.060;3.720;2022-11-20T03:17:33;7.80;99.90
39493;DHT22;25176;51.060;3.720;2022-11-20T03:20:00;7.70;99.90
39493;DHT22;25176;51.060;3.720;2022-11-20T03:22:25;7.70;99.90
39493;DHT22;25176;51.060;3.720;2022-11-20T03:24:51;7.90;99.90
39493;DHT22;25176;51.060;3.720;2022-11-20T03:27:17;7.90;99.90
39493;DHT22;25176;51.060;3.720;2022-11-20T03:29:42;7.90;99.90
39493;DHT22;25176;51.060;3.720;2022-11-20T03:32:08;7.80;99.90
39493;DHT22;25176;51.060;3.720;2022-11-20T03:34:33;7.80;99.90
39493;DHT22;25176;51.060;3.720;2022-11-20T03:36:59;7.70;99.90
39493;DHT22;25176;51.060;3.720;2022-11-20T03:39:24;7.70;99.90
39493;DHT22;25176;51.060;3.720;2022-11-20T03:41:49;7.80;99.90
39493;DHT22;25176;51.060;3.720;2022-11-20T03:44:15;7.70;99.90
39493;DHT22;25176;51.060;3.720;2022-11-20T03:46:40;7.80;99.90
39493;DHT22;25176;51.060;3.720;2022-11-20T03:49:06;7.80;99.90
39493;DHT22;25176;51.060;3.720;2022-11-20T03:51:32;7.80;99.90
39493;DHT22;25176;51.060;3.720;2022-11-20T03:53:59;7.70;99.90
39493;DHT22;25176;51.060;3.720;2022-11-20T03:56:26;7.70;99.90
39493;DHT22;25176;51.060;3.720;2022-11-20T03:58:52;7.80;99.90
39493;DHT22;25176;51.060;3.720;2022-11-20T04:01:25;7.80;99.90
39493;DHT22;25176;51.060;3.720;2022-11-20T04:03:51;8.00;99.90
39493;DHT22;25176;51.060;3.720;2022-11-20T04:06:21;7.90;99.90
39493;DHT22;25176;51.060;3.720;2022-11-20T04:08:46;7.90;99.90
39493;DHT22;25176;51.060;3.720;2022-11-20T04:11:13;7.80;99.90
39493;DHT22;25176;51.060;3.720;2022-11-20T04:13:39;8.10;99.90
39493;DHT22;25176;51.060;3.720;2022-11-20T04:16:05;8.00;99.90
39493;DHT22;25176;51.060;3.720;2022-11-20T04:18:31;8.10;99.90
39493;DHT22;25176;51.060;3.720;2022-11-20T04:20:59;8.00;99.90
39493;DHT22;25176;51.060;3.720;2022-11-20T04:23:25;7.90;99.90
39493;DHT22;25176;51.060;3.720;2022-11-20T04:25:51;7.90;99.90
39493;DHT22;25176;51.060;3.720;2022-11-20T04:28:16;7.80;99.90
39493;DHT22;25176;51.060;3.720;2022-11-20T04:30:42;7.80;99.90
39493;DHT22;25176;51.060;3.720;2022-11-20T04:33:07;8.00;99.90
39493;DHT22;25176;51.060;3.720;2022-11-20T04:35:36;8.00;99.90
39493;DHT22;25176;51.060;3.720;2022-11-20T04:38:02;7.90;99.90
39493;DHT22;25176;51.060;3.720;2022-11-20T04:40:27;7.90;99.90
39493;DHT22;25176;51.060;3.720;2022-11-20T04:42:53;7.90;99.90
39493;DHT22;25176;51.060;3.720;2022-11-20T04:45:19;7.90;99.90
39493;DHT22;25176;51.060;3.720;2022-11-20T04:47:44;7.80;99.90
39493;DHT22;25176;51.060;3.720;2022-11-20T04:50:10;7.70;99.90
39493;DHT22;25176;51.060;3.720;2022-11-20T04:52:35;7.70;99.90
39493;DHT22;25176;51.060;3.720;2022-11-20T04:55:01;7.70;99.90
39493;DHT22;25176;51.060;3.720;2022-11-20T04:57:26;7.70;99.90
39493;DHT22;25176;51.060;3.720;2022-11-20T04:59:52;7.70;99.90
39493;DHT22;25176;51.060;3.720;2022-11-20T05:02:17;7.70;99.90
39493;DHT22;25176;51.060;3.720;2022-11-20T05:04:43;7.80;99.90
39493;DHT22;25176;51.060;3.720;2022-11-20T05:07:08;7.70;99.90
39493;DHT22;25176;51.060;3.720;2022-11-20T05:09:34;7.60;99.90
39493;DHT22;25176;51.060;3.720;2022-11-20T05:11:59;7.60;99.90
39493;DHT22;25176;51.060;3.720;2022-11-20T05:14:25;7.50;99.90
39493;DHT22;25176;51.060;3.720;2022-11-20T05:16:50;7.70;99.90
39493;DHT22;25176;51.060;3.720;2022-11-20T05:19:15;7.70;99.90
39493;DHT22;25176;51.060;3.720;2022-11-20T05:21:41;7.70;99.90
39493;DHT22;25176;51.060;3.720;2022-11-20T05:24:06;7.80;99.90
39493;DHT22;25176;51.060;3.720;2022-11-20T05:26:32;7.30;99.90
39493;DHT22;25176;51.060;3.720;2022-11-20T05:28:57;7.20;99.90
39493;DHT22;25176;51.060;3.720;2022-11-20T05:31:24;7.20;99.90
39493;DHT22;25176;51.060;3.720;2022-11-20T05:33:49;7.10;99.90
39493;DHT22;25176;51.060;3.720;2022-11-20T05:36:15;7.10;99.90
39493;DHT22;25176;51.060;3.720;2022-11-20T05:38:41;7.20;99.90
39493;DHT22;25176;51.060;3.720;2022-11-20T05:41:08;7.30;99.90
39493;DHT22;25176;51.060;3.720;2022-11-20T05:43:34;7.40;99.90
39493;DHT22;25176;51.060;3.720;2022-11-20T05:46:00;7.40;99.90
39493;DHT22;25176;51.060;3.720;2022-11-20T05:48:26;7.30;99.90
39493;DHT22;25176;51.060;3.720;2022-11-20T05:50:51;7.40;99.90
39493;DHT22;25176;51.060;3.720;2022-11-20T05:53:17;7.50;99.90
39493;DHT22;25176;51.060;3.720;2022-11-20T05:55:42;7.60;99.90
39493;DHT22;25176;51.060;3.720;2022-11-20T05:58:08;7.60;99.90
39493;DHT22;25176;51.060;3.720;2022-11-20T06:00:33;7.70;99.90
39493;DHT22;25176;51.060;3.720;2022-11-20T06:02:59;7.70;99.90
39493;DHT22;25176;51.060;3.720;2022-11-20T06:05:24;7.60;99.90
39493;DHT22;25176;51.060;3.720;2022-11-20T06:07:50;7.70;99.90
39493;DHT22;25176;51.060;3.720;2022-11-20T06:10:15;7.90;99.90
39493;DHT22;25176;51.060;3.720;2022-11-20T06:12:41;7.90;99.90
39493;DHT22;25176;51.060;3.720;2022-11-20T06:15:06;7.90;99.90
39493;DHT22;25176;51.060;3.720;2022-11-20T06:17:32;7.90;99.90
39493;DHT22;25176;51.060;3.720;2022-11-20T06:19:57;7.90;99.90
39493;DHT22;25176;51.060;3.720;2022-11-20T06:22:23;7.90;99.90
39493;DHT22;25176;51.060;3.720;2022-11-20T06:24:48;7.80;99.90
39493;DHT22;25176;51.060;3.720;2022-11-20T06:27:14;7.80;99.90
39493;DHT22;25176;51.060;3.720;2022-11-20T06:29:39;7.90;99.90
39493;DHT22;25176;51.060;3.720;2022-11-20T06:32:05;8.00;99.90
39493;DHT22;25176;51.060;3.720;2022-11-20T06:34:30;7.80;99.90
39493;DHT22;25176;51.060;3.720;2022-11-20T06:36:56;7.60;99.90
39493;DHT22;25176;51.060;3.720;2022-11-20T06:39:21;7.60;99.90
39493;DHT22;25176;51.060;3.720;2022-11-20T06:41:46;7.60;99.90
39493;DHT22;25176;51.060;3.720;2022-11-20T06:44:12;7.70;99.90
39493;DHT22;25176;51.060;3.720;2022-11-20T06:46:37;7.50;99.90
39493;DHT22;25176;51.060;3.720;2022-11-20T06:49:03;7.70;99.90
39493;DHT22;25176;51.060;3.720;2022-11-20T06:51:28;7.80;99.90
39493;DHT22;25176;51.060;3.720;2022-11-20T06:53:54;7.90;99.90
39493;DHT22;25176;51.060;3.720;2022-11-20T06:56:19;7.90;99.90
39493;DHT22;25176;51.060;3.720;2022-11-20T06:58:45;7.90;99.90
39493;DHT22;25176;51.060;3.720;2022-11-20T07:01:12;7.80;99.90
39493;DHT22;25176;51.060;3.720;2022-11-20T07:03:38;8.00;99.90
39493;DHT22;25176;51.060;3.720;2022-11-20T07:06:03;7.80;99.90
39493;DHT22;25176;51.060;3.720;2022-11-20T07:08:29;7.70;99.90
39493;DHT22;25176;51.060;3.720;2022-11-20T07:10:58;7.60;99.90
39493;DHT22;25176;51.060;3.720;2022-11-20T07:13:25;7.70;99.90
39493;DHT22;25176;51.060;3.720;2022-11-20T07:15:50;7.70;99.90
39493;DHT22;25176;51.060;3.720;2022-11-20T07:18:16;7.80;99.90
39493;DHT22;25176;51.060;3.720;2022-11-20T07:20:41;7.70;99.90
39493;DHT22;25176;51.060;3.720;2022-11-20T07:23:07;7.70;99.90
39493;DHT22;25176;51.060;3.720;2022-11-20T07:25:32;7.50;99.90
39493;DHT22;25176;51.060;3.720;2022-11-20T07:27:58;7.50;99.90
39493;DHT22;25176;51.060;3.720;2022-11-20T07:30:24;7.50;99.90
39493;DHT22;25176;51.060;3.720;2022-11-20T07:32:53;7.60;99.90
39493;DHT22;25176;51.060;3.720;2022-11-20T07:35:19;7.50;99.90
39493;DHT22;25176;51.060;3.720;2022-11-20T07:37:45;7.70;99.90
39493;DHT22;25176;51.060;3.720;2022-11-20T07:40:11;7.80;99.90
39493;DHT22;25176;51.060;3.720;2022-11-20T07:42:37;7.80;99.90
39493;DHT22;25176;51.060;3.720;2022-11-20T07:45:02;7.90;99.90
39493;DHT22;25176;51.060;3.720;2022-11-20T07:47:28;7.70;99.90
39493;DHT22;25176;51.060;3.720;2022-11-20T07:49:54;7.60;99.90
39493;DHT22;25176;51.060;3.720;2022-11-20T07:52:19;7.50;99.90
39493;DHT22;25176;51.060;3.720;2022-11-20T07:54:45;7.00;99.90
39493;DHT22;25176;51.060;3.720;2022-11-20T07:57:10;6.90;99.90
39493;DHT22;25176;51.060;3.720;2022-11-20T07:59:36;7.10;99.90
39493;DHT22;25176;51.060;3.720;2022-11-20T08:02:01;7.30;99.90
39493;DHT22;25176;51.060;3.720;2022-11-20T08:04:26;7.40;99.90
39493;DHT22;25176;51.060;3.720;2022-11-20T08:06:52;7.20;99.90
39493;DHT22;25176;51.060;3.720;2022-11-20T08:09:18;7.10;99.90
39493;DHT22;25176;51.060;3.720;2022-11-20T08:11:43;7.20;99.90
39493;DHT22;25176;51.060;3.720;2022-11-20T08:14:28;7.30;99.90
39493;DHT22;25176;51.060;3.720;2022-11-20T08:16:53;7.50;99.90
39493;DHT22;25176;51.060;3.720;2022-11-20T08:19:19;7.70;99.90
39493;DHT22;25176;51.060;3.720;2022-11-20T08:21:44;7.50;99.90
39493;DHT22;25176;51.060;3.720;2022-11-20T08:24:10;7.40;99.90
39493;DHT22;25176;51.060;3.720;2022-11-20T08:26:36;7.40;99.90
39493;DHT22;25176;51.060;3.720;2022-11-20T08:29:02;7.50;99.90
39493;DHT22;25176;51.060;3.720;2022-11-20T08:31:28;7.50;99.90
39493;DHT22;25176;51.060;3.720;2022-11-20T08:33:54;7.70;99.90
39493;DHT22;25176;51.060;3.720;2022-11-20T08:36:20;7.90;99.90
39493;DHT22;25176;51.060;3.720;2022-11-20T08:38:49;7.90;99.90
39493;DHT22;25176;51.060;3.720;2022-11-20T08:41:15;8.00;99.90
39493;DHT22;25176;51.060;3.720;2022-11-20T08:43:52;7.80;99.90
39493;DHT22;25176;51.060;3.720;2022-11-20T08:46:17;7.70;99.90
39493;DHT22;25176;51.060;3.720;2022-11-20T08:48:43;7.80;99.90
39493;DHT22;25176;51.060;3.720;2022-11-20T08:51:09;7.90;99.90
39493;DHT22;25176;51.060;3.720;2022-11-20T08:53:35;8.10;99.90
39493;DHT22;25176;51.060;3.720;2022-11-20T08:56:00;8.10;99.90
39493;DHT22;25176;51.060;3.720;2022-11-20T08:58:26;8.10;99.90
39493;DHT22;25176;51.060;3.720;2022-11-20T09:00:51;8.20;99.90
39493;DHT22;25176;51.060;3.720;2022-11-20T09:03:17;8.10;99.90
39493;DHT22;25176;51.060;3.720;2022-11-20T09:05:42;8.20;99.90
39493;DHT22;25176;51.060;3.720;2022-11-20T09:08:08;7.90;99.90
39493;DHT22;25176;51.060;3.720;2022-11-20T09:10:33;7.80;99.90
39493;DHT22;25176;51.060;3.720;2022-11-20T09:12:59;7.90;99.90
39493;DHT22;25176;51.060;3.720;2022-11-20T09:15:24;7.90;99.90
39493;DHT22;25176;51.060;3.720;2022-11-20T09:17:51;7.90;99.90
39493;DHT22;25176;51.060;3.720;2022-11-20T09:20:16;7.90;99.90
39493;DHT22;25176;51.060;3.720;2022-11-20T09:22:42;8.00;99.90
39493;DHT22;25176;51.060;3.720;2022-11-20T09:25:08;8.10;99.90
39493;DHT22;25176;51.060;3.720;2022-11-20T09:27:33;8.20;99.90
39493;DHT22;25176;51.060;3.720;2022-11-20T09:29:59;8.30;99.90
39493;DHT22;25176;51.060;3.720;2022-11-20T09:32:24;8.30;99.90
39493;DHT22;25176;51.060;3.720;2022-11-20T09:34:49;8.50;99.90
39493;DHT22;25176;51.060;3.720;2022-11-20T09:37:15;8.40;99.90
39493;DHT22;25176;51.060;3.720;2022-11-20T09:39:41;8.50;99.90
39493;DHT22;25176;51.060;3.720;2022-11-20T09:44:38;8.30;99.90
39493;DHT22;25176;51.060;3.720;2022-11-20T09:47:10;8.50;99.90
39493;DHT22;25176;51.060;3.720;2022-11-20T09:54:36;8.80;99.90
39493;DHT22;25176;51.060;3.720;2022-11-20T09:57:03;9.00;99.90
39493;DHT22;25176;51.060;3.720;2022-11-20T10:01:56;8.80;99.90
39493;DHT22;25176;51.060;3.720;2022-11-20T10:04:22;9.00;99.90
39493;DHT22;25176;51.060;3.720;2022-11-20T10:06:52;9.20;99.90
39493;DHT22;25176;51.060;3.720;2022-11-20T10:09:27;9.30;99.90
39493;DHT22;25176;51.060;3.720;2022-11-20T10:17:08;9.60;99.90
39493;DHT22;25176;51.060;3.720;2022-11-20T10:19:47;9.80;99.90
39493;DHT22;25176;51.060;3.720;2022-11-20T10:24:57;9.30;99.90
39493;DHT22;25176;51.060;3.720;2022-11-20T10:30:12;9.60;99.90
39493;DHT22;25176;51.060;3.720;2022-11-20T10:32:39;9.90;99.90
39493;DHT22;25176;51.060;3.720;2022-11-20T10:35:20;9.90;99.90
39493;DHT22;25176;51.060;3.720;2022-11-20T10:37:48;10.20;99.90
39493;DHT22;25176;51.060;3.720;2022-11-20T10:40:19;10.30;99.90
39493;DHT22;25176;51.060;3.720;2022-11-20T10:47:49;10.30;99.90
39493;DHT22;25176;51.060;3.720;2022-11-20T10:50:16;10.30;99.90
39493;DHT22;25176;51.060;3.720;2022-11-20T10:58:17;10.60;99.90
39493;DHT22;25176;51.060;3.720;2022-11-20T11:00:47;10.60;99.90
39493;DHT22;25176;51.060;3.720;2022-11-20T11:03:34;10.70;99.90
39493;DHT22;25176;51.060;3.720;2022-11-20T11:08:42;10.60;99.90
39493;DHT22;25176;51.060;3.720;2022-11-20T11:11:18;10.50;99.90
39493;DHT22;25176;51.060;3.720;2022-11-20T11:13:45;10.40;99.90
39493;DHT22;25176;51.060;3.720;2022-11-20T11:16:26;10.50;99.90
39493;DHT22;25176;51.060;3.720;2022-11-20T11:19:03;10.50;99.90
39493;DHT22;25176;51.060;3.720;2022-11-20T11:21:28;10.50;99.90
39493;DHT22;25176;51.060;3.720;2022-11-20T11:23:58;10.30;99.90
39493;DHT22;25176;51.060;3.720;2022-11-20T11:26:24;10.20;99.90
39493;DHT22;25176;51.060;3.720;2022-11-20T11:29:01;10.10;99.90
39493;DHT22;25176;51.060;3.720;2022-11-20T11:31:31;10.10;99.90
39493;DHT22;25176;51.060;3.720;2022-11-20T11:34:07;10.10;99.90
39493;DHT22;25176;51.060;3.720;2022-11-20T11:36:35;10.10;99.90
39493;DHT22;25176;51.060;3.720;2022-11-20T11:39:02;10.10;99.90
39493;DHT22;25176;51.060;3.720;2022-11-20T11:41:30;10.00;99.90
39493;DHT22;25176;51.060;3.720;2022-11-20T11:46:59;10.00;99.90
39493;DHT22;25176;51.060;3.720;2022-11-20T11:49:25;9.90;99.90
39493;DHT22;25176;51.060;3.720;2022-11-20T11:54:41;9.80;99.90
39493;DHT22;25176;51.060;3.720;2022-11-20T11:57:10;9.80;99.90
39493;DHT22;25176;51.060;3.720;2022-11-20T12:02:03;9.80;99.90
39493;DHT22;25176;51.060;3.720;2022-11-20T12:04:46;9.80;99.90
39493;DHT22;25176;51.060;3.720;2022-11-20T12:09:51;9.70;99.90
39493;DHT22;25176;51.060;3.720;2022-11-20T12:12:19;9.60;99.90
39493;DHT22;25176;51.060;3.720;2022-11-20T12:14:46;9.60;99.90
39493;DHT22;25176;51.060;3.720;2022-11-20T12:17:12;9.50;99.90
39493;DHT22;25176;51.060;3.720;2022-11-20T12:19:38;9.60;99.90
39493;DHT22;25176;51.060;3.720;2022-11-20T12:24:49;9.70;99.90
39493;DHT22;25176;51.060;3.720;2022-11-20T12:29:52;9.80;99.90
39493;DHT22;25176;51.060;3.720;2022-11-20T12:34:52;9.90;99.90
39493;DHT22;25176;51.060;3.720;2022-11-20T12:39:55;9.60;99.90
39493;DHT22;25176;51.060;3.720;2022-11-20T12:42:28;9.60;99.90
39493;DHT22;25176;51.060;3.720;2022-11-20T12:55:55;9.80;99.90
39493;DHT22;25176;51.060;3.720;2022-11-20T13:00:51;9.70;99.90
39493;DHT22;25176;51.060;3.720;2022-11-20T13:03:42;9.60;99.90
39493;DHT22;25176;51.060;3.720;2022-11-20T13:06:15;9.50;99.90
39493;DHT22;25176;51.060;3.720;2022-11-20T13:08:44;9.40;99.90
39493;DHT22;25176;51.060;3.720;2022-11-20T13:11:15;9.50;99.90
39493;DHT22;25176;51.060;3.720;2022-11-20T13:16:30;9.50;99.90
39493;DHT22;25176;51.060;3.720;2022-11-20T13:19:01;9.50;99.90
39493;DHT22;25176;51.060;3.720;2022-11-20T13:21:40;9.60;99.90
39493;DHT22;25176;51.060;3.720;2022-11-20T13:24:07;9.50;99.90
39493;DHT22;25176;51.060;3.720;2022-11-20T13:26:33;9.40;99.90
39493;DHT22;25176;51.060;3.720;2022-11-20T13:29:03;9.50;99.90
39493;DHT22;25176;51.060;3.720;2022-11-20T13:33:55;9.50;99.90
39493;DHT22;25176;51.060;3.720;2022-11-20T13:36:23;9.50;99.90
39493;DHT22;25176;51.060;3.720;2022-11-20T13:38:49;9.60;99.90
39493;DHT22;25176;51.060;3.720;2022-11-20T13:46:43;9.50;99.90
39493;DHT22;25176;51.060;3.720;2022-11-20T13:49:55;9.60;99.90
39493;DHT22;25176;51.060;3.720;2022-11-20T14:00:13;9.70;99.90
39493;DHT22;25176;51.060;3.720;2022-11-20T14:02:39;9.80;99.90
39493;DHT22;25176;51.060;3.720;2022-11-20T14:05:05;9.80;99.90
39493;DHT22;25176;51.060;3.720;2022-11-20T14:07:32;9.70;99.90
39493;DHT22;25176;51.060;3.720;2022-11-20T14:09:59;9.70;99.90
39493;DHT22;25176;51.060;3.720;2022-11-20T14:12:29;9.80;99.90
39493;DHT22;25176;51.060;3.720;2022-11-20T14:14:54;9.80;99.90
39493;DHT22;25176;51.060;3.720;2022-11-20T14:17:21;10.00;99.90
39493;DHT22;25176;51.060;3.720;2022-11-20T14:19:48;10.10;99.90
39493;DHT22;25176;51.060;3.720;2022-11-20T14:22:21;10.10;99.90
39493;DHT22;25176;51.060;3.720;2022-11-20T14:24:48;10.20;99.90
39493;DHT22;25176;51.060;3.720;2022-11-20T14:27:14;10.30;99.90
39493;DHT22;25176;51.060;3.720;2022-11-20T14:29:40;10.30;99.90
39493;DHT22;25176;51.060;3.720;2022-11-20T14:32:08;10.40;99.90
39493;DHT22;25176;51.060;3.720;2022-11-20T14:34:36;10.50;99.90
39493;DHT22;25176;51.060;3.720;2022-11-20T14:37:03;10.70;99.90
39493;DHT22;25176;51.060;3.720;2022-11-20T14:39:35;10.70;99.90
39493;DHT22;25176;51.060;3.720;2022-11-20T14:42:01;10.70;99.90
39493;DHT22;25176;51.060;3.720;2022-11-20T14:44:32;10.70;99.90
39493;DHT22;25176;51.060;3.720;2022-11-20T14:46:59;10.70;99.90
39493;DHT22;25176;51.060;3.720;2022-11-20T14:49:25;10.60;99.90
39493;DHT22;25176;51.060;3.720;2022-11-20T14:52:01;10.50;99.90
39493;DHT22;25176;51.060;3.720;2022-11-20T14:54:27;10.40;99.90
39493;DHT22;25176;51.060;3.720;2022-11-20T14:56:58;10.30;99.90
39493;DHT22;25176;51.060;3.720;2022-11-20T14:59:25;10.30;99.90
39493;DHT22;25176;51.060;3.720;2022-11-20T15:04:22;10.30;99.90
39493;DHT22;25176;51.060;3.720;2022-11-20T15:06:51;10.20;99.90
39493;DHT22;25176;51.060;3.720;2022-11-20T15:09:17;10.20;99.90
39493;DHT22;25176;51.060;3.720;2022-11-20T15:12:04;10.10;99.90
39493;DHT22;25176;51.060;3.720;2022-11-20T15:14:29;10.10;99.90
39493;DHT22;25176;51.060;3.720;2022-11-20T15:16:55;10.20;99.90
39493;DHT22;25176;51.060;3.720;2022-11-20T15:19:22;10.20;99.90
39493;DHT22;25176;51.060;3.720;2022-11-20T15:21:48;10.30;99.90
39493;DHT22;25176;51.060;3.720;2022-11-20T15:24:13;10.30;99.90
39493;DHT22;25176;51.060;3.720;2022-11-20T15:26:39;10.20;99.90
39493;DHT22;25176;51.060;3.720;2022-11-20T15:29:07;10.10;99.90
39493;DHT22;25176;51.060;3.720;2022-11-20T15:31:33;10.10;99.90
39493;DHT22;25176;51.060;3.720;2022-11-20T15:34:00;10.10;99.90
39493;DHT22;25176;51.060;3.720;2022-11-20T15:36:25;10.00;99.90
39493;DHT22;25176;51.060;3.720;2022-11-20T15:38:51;10.10;99.90
39493;DHT22;25176;51.060;3.720;2022-11-20T15:41:16;10.00;99.90
39493;DHT22;25176;51.060;3.720;2022-11-20T15:43:41;10.00;99.90
39493;DHT22;25176;51.060;3.720;2022-11-20T15:46:14;9.90;99.90
39493;DHT22;25176;51.060;3.720;2022-11-20T15:48:47;9.90;99.90
39493;DHT22;25176;51.060;3.720;2022-11-20T15:51:18;9.90;99.90
39493;DHT22;25176;51.060;3.720;2022-11-20T15:53:46;9.90;99.90
39493;DHT22;25176;51.060;3.720;2022-11-20T15:56:12;9.90;99.90
39493;DHT22;25176;51.060;3.720;2022-11-20T15:58:38;9.90;99.90
39493;DHT22;25176;51.060;3.720;2022-11-20T16:01:03;10.00;99.90
39493;DHT22;25176;51.060;3.720;2022-11-20T16:03:29;9.90;99.90
39493;DHT22;25176;51.060;3.720;2022-11-20T16:05:55;9.90;99.90
39493;DHT22;25176;51.060;3.720;2022-11-20T16:08:20;10.00;99.90
39493;DHT22;25176;51.060;3.720;2022-11-20T16:10:46;10.00;99.90
39493;DHT22;25176;51.060;3.720;2022-11-20T16:13:15;10.00;99.90
39493;DHT22;25176;51.060;3.720;2022-11-20T16:16:23;9.90;99.90
39493;DHT22;25176;51.060;3.720;2022-11-20T16:18:50;9.90;99.90
39493;DHT22;25176;51.060;3.720;2022-11-20T16:21:16;9.90;99.90
39493;DHT22;25176;51.060;3.720;2022-11-20T16:23:42;9.80;99.90
39493;DHT22;25176;51.060;3.720;2022-11-20T16:26:15;9.80;99.90
39493;DHT22;25176;51.060;3.720;2022-11-20T16:28:42;9.90;99.90
39493;DHT22;25176;51.060;3.720;2022-11-20T16:31:08;10.00;99.90
39493;DHT22;25176;51.060;3.720;2022-11-20T16:33:33;10.00;99.90
39493;DHT22;25176;51.060;3.720;2022-11-20T16:36:05;10.10;99.90
39493;DHT22;25176;51.060;3.720;2022-11-20T16:38:31;10.10;99.90
39493;DHT22;25176;51.060;3.720;2022-11-20T16:40:59;10.20;99.90
39493;DHT22;25176;51.060;3.720;2022-11-20T16:43:25;10.20;99.90
39493;DHT22;25176;51.060;3.720;2022-11-20T16:45:50;10.20;99.90
39493;DHT22;25176;51.060;3.720;2022-11-20T16:48:16;10.10;99.90
39493;DHT22;25176;51.060;3.720;2022-11-20T16:50:48;10.20;99.90
39493;DHT22;25176;51.060;3.720;2022-11-20T16:53:14;10.30;99.90
39493;DHT22;25176;51.060;3.720;2022-11-20T16:55:39;10.40;99.90
39493;DHT22;25176;51.060;3.720;2022-11-20T16:58:05;10.40;99.90
39493;DHT22;25176;51.060;3.720;2022-11-20T17:00:30;10.40;99.90
39493;DHT22;25176;51.060;3.720;2022-11-20T17:02:56;10.40;99.90
39493;DHT22;25176;51.060;3.720;2022-11-20T17:05:21;10.40;99.90
39493;DHT22;25176;51.060;3.720;2022-11-20T17:07:47;10.40;99.90
39493;DHT22;25176;51.060;3.720;2022-11-20T17:10:12;10.50;99.90
39493;DHT22;25176;51.060;3.720;2022-11-20T17:12:38;10.50;99.90
39493;DHT22;25176;51.060;3.720;2022-11-20T17:15:03;10.50;99.90
39493;DHT22;25176;51.060;3.720;2022-11-20T17:17:29;10.30;99.90
39493;DHT22;25176;51.060;3.720;2022-11-20T17:19:54;10.30;99.90
39493;DHT22;25176;51.060;3.720;2022-11-20T17:22:20;10.10;99.90
39493;DHT22;25176;51.060;3.720;2022-11-20T17:24:45;10.00;99.90